createdAt,value
2023-04-18T00:00:00.711Z,101450
2023-04-18T00:01:00.726Z,101450
2023-04-18T00:02:00.782Z,101440
2023-04-18T00:03:03.239Z,101440
2023-04-18T00:04:00.853Z,101440
2023-04-18T00:05:00.879Z,101440
2023-04-18T00:06:00.735Z,101440
2023-04-18T00:07:00.753Z,101440
2023-04-18T00:08:00.666Z,101440
2023-04-18T00:09:01.058Z,101440
2023-04-18T00:10:01.414Z,101440
2023-04-18T00:11:00.716Z,101440
2023-04-18T00:12:00.719Z,101440
2023-04-18T00:13:00.758Z,101440
2023-04-18T00:14:00.763Z,101440
2023-04-18T00:15:01.604Z,101440
2023-04-18T00:16:00.773Z,101430
2023-04-18T00:17:00.737Z,101430
2023-04-18T00:18:00.971Z,101430
2023-04-18T00:19:00.707Z,101430
2023-04-18T00:20:00.808Z,101440
2023-04-18T00:21:00.798Z,101430
2023-04-18T00:22:00.704Z,101430
2023-04-18T00:23:00.707Z,101430
2023-04-18T00:24:01.004Z,101430
2023-04-18T00:25:00.886Z,101430
2023-04-18T00:26:00.822Z,101430
2023-04-18T00:27:00.766Z,101430
2023-04-18T00:28:00.689Z,101430
2023-04-18T00:29:01.468Z,101430
2023-04-18T00:30:00.898Z,101430
2023-04-18T00:31:00.774Z,101430
2023-04-18T00:32:00.706Z,101430
2023-04-18T00:33:00.753Z,101430
2023-04-18T00:34:00.728Z,101420
2023-04-18T00:35:00.772Z,101420
2023-04-18T00:36:00.726Z,101420
2023-04-18T00:37:00.750Z,101420
2023-04-18T00:38:00.749Z,101420
2023-04-18T00:39:00.689Z,101420
2023-04-18T00:40:00.688Z,101420
2023-04-18T00:41:00.785Z,101420
2023-04-18T00:42:01.104Z,101420
2023-04-18T00:43:01.110Z,101410
2023-04-18T00:44:00.746Z,101410
2023-04-18T00:45:00.781Z,101410
2023-04-18T00:46:00.746Z,101410
2023-04-18T00:47:00.729Z,101410
2023-04-18T00:48:00.950Z,101410
2023-04-18T00:49:01.020Z,101410
2023-04-18T00:50:00.984Z,101410
2023-04-18T00:51:00.744Z,101410
2023-04-18T00:52:01.664Z,101410
2023-04-18T00:53:01.174Z,101410
2023-04-18T00:54:02.601Z,101410
2023-04-18T00:55:05.312Z,101410
2023-04-18T00:56:01.117Z,101400
2023-04-18T00:57:00.784Z,101400
2023-04-18T00:58:00.744Z,101400
2023-04-18T00:59:00.805Z,101400
2023-04-18T01:00:04.211Z,101410
2023-04-18T01:01:00.745Z,101400
2023-04-18T01:02:01.661Z,101400
2023-04-18T01:03:00.857Z,101400
2023-04-18T01:04:00.852Z,101400
2023-04-18T01:05:01.191Z,101400
2023-04-18T01:06:00.785Z,101400
2023-04-18T01:07:01.222Z,101400
2023-04-18T01:08:01.403Z,101400
2023-04-18T01:09:00.768Z,101400
2023-04-18T01:10:01.033Z,101390
2023-04-18T01:11:00.991Z,101400
2023-04-18T01:12:00.702Z,101390
2023-04-18T01:13:10.569Z,101390
2023-04-18T01:14:01.614Z,101390
2023-04-18T01:15:00.774Z,101390
2023-04-18T01:16:00.981Z,101390
2023-04-18T01:17:00.762Z,101390
2023-04-18T01:18:00.802Z,101390
2023-04-18T01:19:00.958Z,101390
2023-04-18T01:20:01.104Z,101390
2023-04-18T01:21:00.783Z,101390
2023-04-18T01:22:00.748Z,101390
2023-04-18T01:23:00.700Z,101390
2023-04-18T01:24:09.237Z,101390
2023-04-18T01:25:05.272Z,101390
2023-04-18T01:26:01.204Z,101390
2023-04-18T01:27:00.813Z,101390
2023-04-18T01:28:01.084Z,101390
2023-04-18T01:29:00.728Z,101390
2023-04-18T01:30:00.722Z,101390
2023-04-18T01:31:00.746Z,101390
2023-04-18T01:32:00.700Z,101390
2023-04-18T01:33:01.465Z,101390
2023-04-18T01:34:00.967Z,101390
2023-04-18T01:35:00.779Z,101390
2023-04-18T01:36:00.754Z,101390
2023-04-18T01:37:00.709Z,101390
2023-04-18T01:38:00.719Z,101390
2023-04-18T01:39:00.852Z,101380
2023-04-18T01:40:00.729Z,101390
2023-04-18T01:41:00.705Z,101390
2023-04-18T01:42:00.732Z,101390
2023-04-18T01:43:00.757Z,101390
2023-04-18T01:44:00.784Z,101380
2023-04-18T01:45:00.751Z,101390
2023-04-18T01:46:00.689Z,101390
2023-04-18T01:47:00.733Z,101390
2023-04-18T01:48:00.818Z,101390
2023-04-18T01:49:00.835Z,101390
2023-04-18T01:50:01.005Z,101390
2023-04-18T01:51:00.722Z,101390
2023-04-18T01:52:00.716Z,101390
2023-04-18T01:53:00.738Z,101390
2023-04-18T01:54:00.712Z,101390
2023-04-18T01:55:00.966Z,101390
2023-04-18T01:56:00.687Z,101390
2023-04-18T01:57:00.702Z,101390
2023-04-18T01:58:00.705Z,101390
2023-04-18T01:59:00.818Z,101390
2023-04-18T02:00:00.785Z,101390
2023-04-18T02:01:00.828Z,101390
2023-04-18T02:02:00.745Z,101390
2023-04-18T02:03:00.832Z,101380
2023-04-18T02:04:00.760Z,101390
2023-04-18T02:05:00.865Z,101380
2023-04-18T02:06:01.959Z,101380
2023-04-18T02:07:00.728Z,101380
2023-04-18T02:08:00.726Z,101380
2023-04-18T02:09:00.712Z,101390
2023-04-18T02:10:01.433Z,101390
2023-04-18T02:11:00.988Z,101390
2023-04-18T02:12:01.118Z,101380
2023-04-18T02:13:00.686Z,101380
2023-04-18T02:14:00.690Z,101380
2023-04-18T02:15:00.742Z,101380
2023-04-18T02:16:00.769Z,101380
2023-04-18T02:17:01.164Z,101380
2023-04-18T02:18:00.843Z,101380
2023-04-18T02:19:00.754Z,101380
2023-04-18T02:20:00.784Z,101380
2023-04-18T02:21:00.779Z,101380
2023-04-18T02:22:00.724Z,101380
2023-04-18T02:23:00.981Z,101380
2023-04-18T02:24:00.768Z,101380
2023-04-18T02:25:00.688Z,101380
2023-04-18T02:26:00.752Z,101380
2023-04-18T02:27:00.721Z,101380
2023-04-18T02:28:00.830Z,101380
2023-04-18T02:29:00.759Z,101370
2023-04-18T02:30:00.845Z,101370
2023-04-18T02:31:01.290Z,101370
2023-04-18T02:32:00.751Z,101370
2023-04-18T02:33:00.745Z,101370
2023-04-18T02:34:00.728Z,101370
2023-04-18T02:35:00.875Z,101370
2023-04-18T02:36:00.705Z,101370
2023-04-18T02:37:00.783Z,101370
2023-04-18T02:38:00.720Z,101370
2023-04-18T02:39:01.545Z,101370
2023-04-18T02:40:00.786Z,101370
2023-04-18T02:41:00.721Z,101370
2023-04-18T02:42:00.731Z,101370
2023-04-18T02:43:00.696Z,101370
2023-04-18T02:44:00.758Z,101370
2023-04-18T02:45:00.812Z,101370
2023-04-18T02:46:00.733Z,101370
2023-04-18T02:47:00.714Z,101370
2023-04-18T02:48:00.765Z,101370
2023-04-18T02:49:00.681Z,101370
2023-04-18T02:50:01.434Z,101370
2023-04-18T02:51:02.516Z,101370
2023-04-18T02:52:00.731Z,101370
2023-04-18T02:53:00.731Z,101370
2023-04-18T02:54:00.744Z,101370
2023-04-18T02:55:00.744Z,101360
2023-04-18T02:56:01.036Z,101360
2023-04-18T02:57:00.713Z,101370
2023-04-18T02:58:00.716Z,101360
2023-04-18T02:59:00.710Z,101360
2023-04-18T03:00:00.737Z,101360
2023-04-18T03:01:00.810Z,101360
2023-04-18T03:02:00.837Z,101360
2023-04-18T03:03:00.828Z,101360
2023-04-18T03:04:00.728Z,101360
2023-04-18T03:05:00.821Z,101360
2023-04-18T03:06:00.704Z,101360
2023-04-18T03:07:00.710Z,101360
2023-04-18T03:08:00.727Z,101360
2023-04-18T03:09:01.936Z,101360
2023-04-18T03:10:00.707Z,101360
2023-04-18T03:11:00.727Z,101360
2023-04-18T03:12:00.751Z,101360
2023-04-18T03:13:00.704Z,101360
2023-04-18T03:14:00.714Z,101360
2023-04-18T03:15:00.733Z,101360
2023-04-18T03:16:00.763Z,101360
2023-04-18T03:17:00.713Z,101360
2023-04-18T03:18:00.727Z,101360
2023-04-18T03:19:00.698Z,101360
2023-04-18T03:20:00.796Z,101360
2023-04-18T03:21:00.700Z,101350
2023-04-18T03:22:00.705Z,101360
2023-04-18T03:23:00.780Z,101350
2023-04-18T03:24:00.777Z,101350
2023-04-18T03:25:00.700Z,101350
2023-04-18T03:26:00.764Z,101350
2023-04-18T03:27:00.752Z,101350
2023-04-18T03:28:00.718Z,101350
2023-04-18T03:29:00.691Z,101350
2023-04-18T03:30:01.350Z,101350
2023-04-18T03:31:00.899Z,101350
2023-04-18T03:32:00.803Z,101350
2023-04-18T03:33:00.736Z,101350
2023-04-18T03:34:00.765Z,101350
2023-04-18T03:35:01.124Z,101350
2023-04-18T03:36:00.753Z,101350
2023-04-18T03:37:00.788Z,101350
2023-04-18T03:38:00.726Z,101350
2023-04-18T03:39:00.907Z,101350
2023-04-18T03:40:00.736Z,101350
2023-04-18T03:41:00.715Z,101350
2023-04-18T03:42:00.681Z,101350
2023-04-18T03:43:00.740Z,101350
2023-04-18T03:44:00.698Z,101350
2023-04-18T03:45:01.197Z,101350
2023-04-18T03:46:00.965Z,101350
2023-04-18T03:47:00.760Z,101350
2023-04-18T03:48:00.835Z,101340
2023-04-18T03:49:00.695Z,101350
2023-04-18T03:50:00.718Z,101340
2023-04-18T03:51:00.707Z,101340
2023-04-18T03:52:00.742Z,101340
2023-04-18T03:53:00.673Z,101340
2023-04-18T03:54:00.762Z,101340
2023-04-18T03:55:00.719Z,101340
2023-04-18T03:56:00.840Z,101340
2023-04-18T03:57:00.699Z,101340
2023-04-18T03:58:00.699Z,101340
2023-04-18T03:59:00.688Z,101340
2023-04-18T04:00:00.722Z,101340
2023-04-18T04:01:00.706Z,101340
2023-04-18T04:02:00.823Z,101340
2023-04-18T04:03:00.956Z,101340
2023-04-18T04:04:01.224Z,101340
2023-04-18T04:05:00.755Z,101340
2023-04-18T04:06:00.691Z,101340
2023-04-18T04:07:00.865Z,101340
2023-04-18T04:08:00.679Z,101340
2023-04-18T04:09:00.802Z,101340
2023-04-18T04:10:00.747Z,101340
2023-04-18T04:11:00.735Z,101340
2023-04-18T04:12:00.727Z,101340
2023-04-18T04:13:00.747Z,101340
2023-04-18T04:14:00.765Z,101340
2023-04-18T04:15:00.795Z,101340
2023-04-18T04:16:01.129Z,101340
2023-04-18T04:17:00.786Z,101340
2023-04-18T04:18:00.821Z,101340
2023-04-18T04:19:00.720Z,101340
2023-04-18T04:20:00.923Z,101340
2023-04-18T04:21:00.716Z,101340
2023-04-18T04:22:00.787Z,101340
2023-04-18T04:23:00.719Z,101340
2023-04-18T04:24:00.699Z,101340
2023-04-18T04:25:00.718Z,101340
2023-04-18T04:26:00.731Z,101340
2023-04-18T04:27:00.759Z,101340
2023-04-18T04:28:00.727Z,101340
2023-04-18T04:29:01.178Z,101340
2023-04-18T04:30:00.745Z,101340
2023-04-18T04:31:01.147Z,101340
2023-04-18T04:32:00.762Z,101330
2023-04-18T04:33:00.704Z,101330
2023-04-18T04:34:00.699Z,101330
2023-04-18T04:35:00.715Z,101330
2023-04-18T04:36:00.699Z,101330
2023-04-18T04:37:00.689Z,101330
2023-04-18T04:38:00.730Z,101330
2023-04-18T04:39:00.705Z,101330
2023-04-18T04:40:00.823Z,101330
2023-04-18T04:41:00.682Z,101330
2023-04-18T04:42:00.727Z,101330
2023-04-18T04:43:00.697Z,101320
2023-04-18T04:44:00.692Z,101330
2023-04-18T04:45:01.175Z,101320
2023-04-18T04:46:02.142Z,101320
2023-04-18T04:47:00.700Z,101330
2023-04-18T04:48:00.740Z,101320
2023-04-18T04:49:00.754Z,101330
2023-04-18T04:50:00.859Z,101330
2023-04-18T04:51:00.812Z,101330
2023-04-18T04:52:01.998Z,101330
2023-04-18T04:53:00.690Z,101320
2023-04-18T04:54:00.722Z,101320
2023-04-18T04:55:00.711Z,101330
2023-04-18T04:56:00.727Z,101320
2023-04-18T04:57:00.761Z,101320
2023-04-18T04:58:00.721Z,101330
2023-04-18T04:59:00.775Z,101330
2023-04-18T05:00:00.737Z,101320
2023-04-18T05:01:00.820Z,101330
2023-04-18T05:02:00.835Z,101330
2023-04-18T05:03:00.853Z,101330
2023-04-18T05:04:00.981Z,101330
2023-04-18T05:05:00.705Z,101330
2023-04-18T05:06:00.935Z,101330
2023-04-18T05:07:00.754Z,101330
2023-04-18T05:08:00.934Z,101330
2023-04-18T05:09:00.680Z,101330
2023-04-18T05:10:00.843Z,101330
2023-04-18T05:11:01.165Z,101330
2023-04-18T05:12:00.697Z,101330
2023-04-18T05:13:00.755Z,101330
2023-04-18T05:14:00.666Z,101330
2023-04-18T05:15:00.739Z,101330
2023-04-18T05:16:00.720Z,101330
2023-04-18T05:17:00.716Z,101330
2023-04-18T05:18:00.791Z,101330
2023-04-18T05:19:00.811Z,101330
2023-04-18T05:20:00.755Z,101330
2023-04-18T05:21:00.692Z,101330
2023-04-18T05:22:00.708Z,101330
2023-04-18T05:23:00.751Z,101330
2023-04-18T05:24:00.769Z,101340
2023-04-18T05:25:00.956Z,101340
2023-04-18T05:26:00.710Z,101340
2023-04-18T05:27:00.883Z,101340
2023-04-18T05:28:00.759Z,101340
2023-04-18T05:29:00.746Z,101340
2023-04-18T05:30:00.705Z,101340
2023-04-18T05:31:00.725Z,101340
2023-04-18T05:32:00.800Z,101340
2023-04-18T05:33:00.842Z,101340
2023-04-18T05:34:00.688Z,101350
2023-04-18T05:35:00.786Z,101350
2023-04-18T05:36:00.681Z,101350
2023-04-18T05:37:00.929Z,101350
2023-04-18T05:38:00.699Z,101350
2023-04-18T05:39:00.702Z,101350
2023-04-18T05:40:01.215Z,101360
2023-04-18T05:41:00.709Z,101350
2023-04-18T05:42:00.709Z,101350
2023-04-18T05:43:00.732Z,101350
2023-04-18T05:44:05.417Z,101360
2023-04-18T05:45:00.730Z,101350
2023-04-18T05:46:00.784Z,101350
2023-04-18T05:47:00.720Z,101360
2023-04-18T05:48:00.790Z,101360
2023-04-18T05:49:00.831Z,101360
2023-04-18T05:50:00.725Z,101360
2023-04-18T05:51:00.729Z,101360
2023-04-18T05:52:00.710Z,101360
2023-04-18T05:53:00.710Z,101360
2023-04-18T05:54:00.711Z,101360
2023-04-18T05:55:00.705Z,101360
2023-04-18T05:56:00.737Z,101360
2023-04-18T05:57:02.557Z,101360
2023-04-18T05:58:00.742Z,101360
2023-04-18T05:59:00.760Z,101360
2023-04-18T06:00:00.801Z,101360
2023-04-18T06:01:00.709Z,101360
2023-04-18T06:02:00.768Z,101370
2023-04-18T06:03:00.890Z,101370
2023-04-18T06:04:00.943Z,101360
2023-04-18T06:05:00.809Z,101360
2023-04-18T06:06:00.914Z,101360
2023-04-18T06:07:00.695Z,101360
2023-04-18T06:08:00.800Z,101360
2023-04-18T06:09:00.907Z,101360
2023-04-18T06:10:00.734Z,101360
2023-04-18T06:11:00.734Z,101360
2023-04-18T06:12:00.727Z,101360
2023-04-18T06:13:00.960Z,101360
2023-04-18T06:14:00.999Z,101360
2023-04-18T06:15:00.721Z,101360
2023-04-18T06:16:00.775Z,101360
2023-04-18T06:17:00.788Z,101360
2023-04-18T06:18:00.769Z,101350
2023-04-18T06:19:01.476Z,101350
2023-04-18T06:20:01.050Z,101360
2023-04-18T06:21:00.730Z,101350
2023-04-18T06:22:00.687Z,101350
2023-04-18T06:23:00.721Z,101350
2023-04-18T06:24:00.704Z,101350
2023-04-18T06:25:00.706Z,101350
2023-04-18T06:26:00.685Z,101360
2023-04-18T06:27:00.730Z,101360
2023-04-18T06:28:00.712Z,101360
2023-04-18T06:29:00.831Z,101360
2023-04-18T06:30:01.004Z,101360
2023-04-18T06:31:00.698Z,101360
2023-04-18T06:32:00.805Z,101360
2023-04-18T06:33:00.762Z,101360
2023-04-18T06:34:00.689Z,101360
2023-04-18T06:35:00.760Z,101360
2023-04-18T06:36:00.935Z,101360
2023-04-18T06:37:01.136Z,101360
2023-04-18T06:38:00.947Z,101360
2023-04-18T06:39:00.688Z,101370
2023-04-18T06:40:00.702Z,101360
2023-04-18T06:41:00.810Z,101360
2023-04-18T06:42:00.722Z,101360
2023-04-18T06:43:00.729Z,101370
2023-04-18T06:44:04.065Z,101360
2023-04-18T06:45:00.744Z,101370
2023-04-18T06:46:01.840Z,101370
2023-04-18T06:47:00.848Z,101370
2023-04-18T06:48:02.189Z,101370
2023-04-18T06:49:00.770Z,101370
2023-04-18T06:50:00.738Z,101370
2023-04-18T06:51:00.731Z,101370
2023-04-18T06:52:00.773Z,101370
2023-04-18T06:53:00.758Z,101370
2023-04-18T06:54:00.788Z,101370
2023-04-18T06:55:00.707Z,101370
2023-04-18T06:56:00.713Z,101370
2023-04-18T06:57:00.724Z,101370
2023-04-18T06:58:00.733Z,101370
2023-04-18T06:59:00.730Z,101370
2023-04-18T07:00:00.757Z,101370
2023-04-18T07:01:00.741Z,101370
2023-04-18T07:02:00.750Z,101370
2023-04-18T07:03:00.940Z,101370
2023-04-18T07:04:00.744Z,101370
2023-04-18T07:05:00.684Z,101370
2023-04-18T07:06:00.804Z,101370
2023-04-18T07:07:01.028Z,101370
2023-04-18T07:08:00.722Z,101370
2023-04-18T07:09:00.988Z,101370
2023-04-18T07:10:00.828Z,101370
2023-04-18T07:11:00.736Z,101370
2023-04-18T07:12:00.777Z,101370
2023-04-18T07:13:00.684Z,101370
2023-04-18T07:14:00.784Z,101370
2023-04-18T07:15:00.741Z,101360
2023-04-18T07:16:00.737Z,101360
2023-04-18T07:17:00.894Z,101360
2023-04-18T07:18:01.027Z,101360
2023-04-18T07:19:00.683Z,101360
2023-04-18T07:20:00.688Z,101360
2023-04-18T07:21:00.673Z,101360
2023-04-18T07:22:00.713Z,101360
2023-04-18T07:23:00.814Z,101360
2023-04-18T07:24:00.692Z,101360
2023-04-18T07:25:00.866Z,101360
2023-04-18T07:26:00.703Z,101360
2023-04-18T07:27:01.563Z,101360
2023-04-18T07:28:00.843Z,101350
2023-04-18T07:29:00.715Z,101350
2023-04-18T07:30:01.054Z,101350
2023-04-18T07:31:00.750Z,101350
2023-04-18T07:32:00.900Z,101350
2023-04-18T07:33:00.725Z,101350
2023-04-18T07:34:00.787Z,101350
2023-04-18T07:35:01.108Z,101340
2023-04-18T07:36:00.785Z,101350
2023-04-18T07:37:00.688Z,101350
2023-04-18T07:38:00.746Z,101350
2023-04-18T07:39:00.816Z,101350
2023-04-18T07:40:00.917Z,101350
2023-04-18T07:41:01.315Z,101350
2023-04-18T07:42:01.796Z,101350
2023-04-18T07:43:00.700Z,101350
2023-04-18T07:44:01.016Z,101350
2023-04-18T07:45:00.766Z,101360
2023-04-18T07:46:00.875Z,101360
2023-04-18T07:47:00.925Z,101360
2023-04-18T07:48:01.282Z,101360
2023-04-18T07:49:00.696Z,101360
2023-04-18T07:50:01.048Z,101360
2023-04-18T07:51:00.804Z,101360
2023-04-18T07:52:00.807Z,101360
2023-04-18T07:53:00.869Z,101360
2023-04-18T07:54:00.752Z,101360
2023-04-18T07:55:00.697Z,101360
2023-04-18T07:56:00.687Z,101360
2023-04-18T07:57:00.722Z,101360
2023-04-18T07:58:00.770Z,101360
2023-04-18T07:59:00.742Z,101360
2023-04-18T08:00:00.737Z,101360
2023-04-18T08:01:01.152Z,101360
2023-04-18T08:02:00.810Z,101360
2023-04-18T08:03:00.886Z,101360
2023-04-18T08:04:01.004Z,101360
2023-04-18T08:05:00.949Z,101360
2023-04-18T08:06:00.758Z,101360
2023-04-18T08:07:00.754Z,101360
2023-04-18T08:08:00.741Z,101360
2023-04-18T08:09:00.779Z,101360
2023-04-18T08:10:00.869Z,101360
2023-04-18T08:11:00.694Z,101360
2023-04-18T08:12:00.713Z,101370
2023-04-18T08:13:01.012Z,101360
2023-04-18T08:14:00.818Z,101360
2023-04-18T08:15:00.714Z,101360
2023-04-18T08:16:00.754Z,101360
2023-04-18T08:17:00.696Z,101370
2023-04-18T08:18:01.018Z,101370
2023-04-18T08:19:00.743Z,101370
2023-04-18T08:20:00.824Z,101370
2023-04-18T08:21:00.749Z,101370
2023-04-18T08:22:08.578Z,101370
2023-04-18T08:24:00.717Z,101370
2023-04-18T08:25:04.927Z,101370
2023-04-18T08:26:00.695Z,101370
2023-04-18T08:27:00.706Z,101370
2023-04-18T08:28:00.879Z,101370
2023-04-18T08:29:00.757Z,101370
2023-04-18T08:30:00.860Z,101370
2023-04-18T08:31:00.780Z,101370
2023-04-18T08:32:00.789Z,101370
2023-04-18T08:33:00.884Z,101370
2023-04-18T08:34:01.700Z,101370
2023-04-18T08:35:00.775Z,101370
2023-04-18T08:36:00.693Z,101370
2023-04-18T08:37:00.850Z,101370
2023-04-18T08:38:00.810Z,101370
2023-04-18T08:39:00.730Z,101370
2023-04-18T08:40:02.518Z,101370
2023-04-18T08:41:00.724Z,101380
2023-04-18T08:42:00.752Z,101380
2023-04-18T08:43:00.938Z,101380
2023-04-18T08:44:00.923Z,101380
2023-04-18T08:45:00.725Z,101380
2023-04-18T08:46:00.848Z,101380
2023-04-18T08:47:00.705Z,101380
2023-04-18T08:48:00.772Z,101380
2023-04-18T08:49:01.283Z,101380
2023-04-18T08:50:00.792Z,101380
2023-04-18T08:51:00.775Z,101380
2023-04-18T08:52:01.492Z,101380
2023-04-18T08:53:00.758Z,101390
2023-04-18T08:54:01.660Z,101380
2023-04-18T08:55:00.780Z,101390
2023-04-18T08:56:00.960Z,101390
2023-04-18T08:57:04.934Z,101380
2023-04-18T08:58:00.989Z,101380
2023-04-18T08:59:00.738Z,101390
2023-04-18T09:00:00.778Z,101390
2023-04-18T09:01:01.661Z,101380
2023-04-18T09:02:01.588Z,101390
2023-04-18T09:03:00.928Z,101380
2023-04-18T09:04:00.812Z,101390
2023-04-18T09:05:08.867Z,101390
2023-04-18T09:06:10.594Z,101390
2023-04-18T09:07:01.522Z,101390
2023-04-18T09:08:10.582Z,101390
2023-04-18T09:09:00.703Z,101390
2023-04-18T09:10:00.726Z,101400
2023-04-18T09:11:10.560Z,101390
2023-04-18T09:12:08.761Z,101390
2023-04-18T09:13:01.380Z,101390
2023-04-18T09:14:00.730Z,101390
2023-04-18T09:15:10.606Z,101390
2023-04-18T09:16:00.782Z,101390
2023-04-18T09:17:01.053Z,101400
2023-04-18T09:18:00.794Z,101390
2023-04-18T09:19:08.837Z,101400
2023-04-18T09:20:01.482Z,101390
2023-04-18T09:21:10.595Z,101390
2023-04-18T09:22:01.312Z,101390
2023-04-18T09:23:01.988Z,101390
2023-04-18T09:24:10.674Z,101400
2023-04-18T09:25:00.738Z,101390
2023-04-18T09:26:00.752Z,101390
2023-04-18T09:27:00.703Z,101390
2023-04-18T09:28:01.617Z,101390
2023-04-18T09:29:00.733Z,101390
2023-04-18T09:30:00.728Z,101380
2023-04-18T09:31:08.933Z,101390
2023-04-18T09:32:00.832Z,101380
2023-04-18T09:33:01.283Z,101380
2023-04-18T09:34:00.736Z,101380
2023-04-18T09:35:03.433Z,101390
2023-04-18T09:36:10.593Z,101380
2023-04-18T09:37:04.673Z,101390
2023-04-18T09:38:00.792Z,101380
2023-04-18T09:39:00.699Z,101390
2023-04-18T09:40:10.618Z,101380
2023-04-18T09:41:08.569Z,101380
2023-04-18T09:42:00.807Z,101380
2023-04-18T09:43:10.559Z,101380
2023-04-18T09:44:10.147Z,101380
2023-04-18T09:45:02.421Z,101380
2023-04-18T09:46:02.129Z,101380
2023-04-18T09:47:00.808Z,101380
2023-04-18T09:48:00.734Z,101380
2023-04-18T09:49:00.938Z,101380
2023-04-18T09:50:05.462Z,101380
2023-04-18T09:51:04.242Z,101380
2023-04-18T09:52:03.732Z,101380
2023-04-18T09:53:01.206Z,101380
2023-04-18T09:54:02.517Z,101380
2023-04-18T09:55:01.725Z,101380
2023-04-18T09:56:01.225Z,101390
2023-04-18T09:57:01.997Z,101390
2023-04-18T09:58:02.327Z,101390
2023-04-18T09:59:08.814Z,101390
2023-04-18T10:00:03.068Z,101390
2023-04-18T10:01:01.645Z,101390
2023-04-18T10:02:02.059Z,101390
2023-04-18T10:03:01.750Z,101390
2023-04-18T10:04:01.930Z,101390
2023-04-18T10:05:03.987Z,101390
2023-04-18T10:06:00.907Z,101390
2023-04-18T10:07:01.201Z,101390
2023-04-18T10:08:01.058Z,101390
2023-04-18T10:09:02.763Z,101390
2023-04-18T10:10:00.688Z,101380
2023-04-18T10:11:00.793Z,101390
2023-04-18T10:12:01.045Z,101380
2023-04-18T10:13:01.850Z,101390
2023-04-18T10:14:02.374Z,101390
2023-04-18T10:15:00.842Z,101380
2023-04-18T10:16:01.277Z,101380
2023-04-18T10:17:00.826Z,101380
2023-04-18T10:18:05.831Z,101380
2023-04-18T10:19:10.640Z,101390
2023-04-18T10:20:04.659Z,101380
2023-04-18T10:21:01.487Z,101380
2023-04-18T10:22:00.848Z,101390
2023-04-18T10:23:10.602Z,101380
2023-04-18T10:24:00.729Z,101380
2023-04-18T10:25:00.732Z,101380
2023-04-18T10:26:01.263Z,101380
2023-04-18T10:27:00.836Z,101380
2023-04-18T10:28:01.778Z,101380
2023-04-18T10:29:00.726Z,101380
2023-04-18T10:30:00.819Z,101380
2023-04-18T10:31:01.012Z,101380
2023-04-18T10:32:07.900Z,101380
2023-04-18T10:33:15.447Z,101380
2023-04-18T10:34:06.131Z,101380
2023-04-18T10:35:00.804Z,101380
2023-04-18T10:36:03.369Z,101380
2023-04-18T10:37:04.214Z,101380
2023-04-18T10:38:00.735Z,101380
2023-04-18T10:39:00.744Z,101380
2023-04-18T10:40:00.833Z,101380
2023-04-18T10:41:10.583Z,101380
2023-04-18T10:42:00.708Z,101380
2023-04-18T10:43:00.792Z,101380
2023-04-18T10:44:11.418Z,101370
2023-04-18T10:45:10.567Z,101370
2023-04-18T10:46:14.343Z,101370
2023-04-18T10:47:08.099Z,101370
2023-04-18T10:48:10.808Z,101370
2023-04-18T10:49:10.589Z,101370
2023-04-18T10:50:00.722Z,101370
2023-04-18T10:51:10.599Z,101370
2023-04-18T10:52:01.547Z,101370
2023-04-18T10:53:00.702Z,101370
2023-04-18T10:54:01.557Z,101380
2023-04-18T10:55:06.500Z,101370
2023-04-18T10:56:02.575Z,101370
2023-04-18T10:57:01.628Z,101380
2023-04-18T10:58:01.616Z,101370
2023-04-18T10:59:01.464Z,101370
2023-04-18T11:00:00.861Z,101370
2023-04-18T11:01:02.379Z,101370
2023-04-18T11:02:10.641Z,101370
2023-04-18T11:03:00.900Z,101370
2023-04-18T11:04:01.099Z,101360
2023-04-18T11:05:02.517Z,101370
2023-04-18T11:06:01.203Z,101370
2023-04-18T11:07:00.800Z,101360
2023-04-18T11:08:00.683Z,101360
2023-04-18T11:09:10.653Z,101360
2023-04-18T11:10:01.137Z,101360
2023-04-18T11:11:00.739Z,101360
2023-04-18T11:12:02.648Z,101360
2023-04-18T11:13:04.508Z,101350
2023-04-18T11:14:00.685Z,101350
2023-04-18T11:15:01.365Z,101350
2023-04-18T11:16:00.700Z,101350
2023-04-18T11:17:10.586Z,101350
2023-04-18T11:18:01.972Z,101350
2023-04-18T11:19:10.565Z,101350
2023-04-18T11:20:03.457Z,101350
2023-04-18T11:21:00.766Z,101350
2023-04-18T11:22:00.767Z,101350
2023-04-18T11:23:00.697Z,101350
2023-04-18T11:24:01.297Z,101350
2023-04-18T11:25:05.882Z,101350
2023-04-18T11:26:00.740Z,101350
2023-04-18T11:27:02.080Z,101350
2023-04-18T11:28:01.528Z,101350
2023-04-18T11:29:00.747Z,101350
2023-04-18T11:30:00.736Z,101350
2023-04-18T11:31:00.724Z,101350
2023-04-18T11:32:00.781Z,101350
2023-04-18T11:33:04.017Z,101360
2023-04-18T11:34:00.980Z,101360
2023-04-18T11:35:01.360Z,101350
2023-04-18T11:36:01.381Z,101350
2023-04-18T11:37:04.598Z,101350
2023-04-18T11:38:00.762Z,101360
2023-04-18T11:39:00.787Z,101350
2023-04-18T11:40:01.150Z,101350
2023-04-18T11:41:01.789Z,101350
2023-04-18T11:42:00.718Z,101350
2023-04-18T11:43:02.723Z,101350
2023-04-18T11:44:04.649Z,101350
2023-04-18T11:45:01.138Z,101350
2023-04-18T11:46:00.813Z,101350
2023-04-18T11:47:00.698Z,101340
2023-04-18T11:48:01.142Z,101340
2023-04-18T11:49:00.852Z,101350
2023-04-18T11:50:02.161Z,101350
2023-04-18T11:51:00.728Z,101350
2023-04-18T11:52:09.732Z,101350
2023-04-18T11:53:00.757Z,101340
2023-04-18T11:54:00.975Z,101350
2023-04-18T11:55:10.563Z,101340
2023-04-18T11:56:00.934Z,101340
2023-04-18T11:57:00.736Z,101340
2023-04-18T11:58:00.808Z,101330
2023-04-18T11:59:07.316Z,101340
2023-04-18T12:00:00.715Z,101340
2023-04-18T12:01:10.579Z,101340
2023-04-18T12:02:12.605Z,101330
2023-04-18T12:03:01.901Z,101330
2023-04-18T12:04:00.901Z,101330
2023-04-18T12:05:01.016Z,101330
2023-04-18T12:06:00.905Z,101330
2023-04-18T12:07:00.869Z,101330
2023-04-18T12:08:04.725Z,101330
2023-04-18T12:09:00.702Z,101330
2023-04-18T12:10:01.200Z,101330
2023-04-18T12:11:00.695Z,101330
2023-04-18T12:12:01.886Z,101340
2023-04-18T12:13:00.975Z,101340
2023-04-18T12:14:02.566Z,101340
2023-04-18T12:15:00.738Z,101340
2023-04-18T12:16:01.126Z,101340
2023-04-18T12:17:02.382Z,101330
2023-04-18T12:18:03.096Z,101330
2023-04-18T12:19:00.789Z,101340
2023-04-18T12:20:01.828Z,101340
2023-04-18T12:21:03.706Z,101340
2023-04-18T12:22:01.646Z,101330
2023-04-18T12:23:00.715Z,101340
2023-04-18T12:24:10.570Z,101340
2023-04-18T12:25:10.570Z,101340
2023-04-18T12:26:01.970Z,101340
2023-04-18T12:27:00.725Z,101340
2023-04-18T12:28:03.109Z,101340
2023-04-18T12:29:00.718Z,101340